Staunton, Virginia
Current Conditions -  °F | °C
As of 11:55 AM on Monday 22 Dec 2014 (Local Time) from KW13 Reporting Station
Overcast Overcast  
Wind Chill: 32°   Ceiling: 500
Heat Index: 32°   Visibility: 2.5mi
Dew Point: 31°   Wind: 3mph
Humidity: 96%   Direction: 350°N
Pressure: 30.16"   Gusts: NA
Location:  38.15°N, 79.07°W
Report Text: KW13 221655Z AUTO 35003KT 2 1/2SM OVC005 00/M01 A3016 RMK AO1 P0002 T10011007
Loading
Personal Weather Stations






























Interactive Weather Map New forecast layout! Learn more

10-Day Weather Forecast

Advertisements
Track Severe Weather on mobile